San Diego, California
Traffic Map
Current Weather Conditions
San Diego, California
Broken Clouds
Broken Clouds
60°
Feels Like: 60°
Wind Chill: 60° Ceiling: 12000
Heat Index: 60° Visibility: 10mi
Dew Point: 45° Wind: 12mph
Humidity: 57% Direction: 290° (WNW)
Pressure: 30.09in Gusts: 0mph
Raw Report DataKSAN 230051Z 29010KT 10SM SCT031 SCT038 BKN120 BKN200 16/07 A3009 RMK AO2 SLP189 T01560072
Traffic Incident Summary
Active as of:
Severity:
Category:
InformationThere was an issue retrieving the traffic information for this location. Please try a different location or try again shortly.
Advertisements
Track Severe Weather on mobile